Time;durP1;ratioP1;P1;durP2;ratioP2;P2;SDS_P1;SDS_P2;PMS_P1;PMS_P2;Temp;Humidity;BMP_temperature;BMP_pressure;BME280_temperature;BME280_humidity;BME280_pressure;Samples;Min_cycle;Max_cycle;Signal;HPM_P1;HPM_P2
2023/03/22 00:01:09;;;;;;;20.13;18.10;;;10.00;80.90;;;;;;6270421;28;20242;-84
2023/03/22 00:04:12;;;;;;;20.47;16.73;;;10.00;80.90;;;;;;6285215;28;20253;-83
2023/03/22 00:07:17;;;;;;;17.97;16.07;;;9.90;80.90;;;;;;6289627;28;20248;-83
2023/03/22 00:10:20;;;;;;;21.27;17.37;;;9.80;80.80;;;;;;6282612;28;20240;-83
2023/03/22 00:13:23;;;;;;;16.73;14.97;;;9.80;80.90;;;;;;6294229;28;20217;-83
2023/03/22 00:16:26;;;;;;;17.37;15.60;;;9.70;80.80;;;;;;6286145;28;20260;-85
2023/03/22 00:19:32;;;;;;;18.57;16.67;;;9.70;80.90;;;;;;6277441;28;20234;-83
2023/03/22 00:22:37;;;;;;;21.27;17.07;;;9.60;81.00;;;;;;6275788;28;20237;-82
2023/03/22 00:25:41;;;;;;;20.57;18.40;;;9.50;81.20;;;;;;6278261;28;20367;-83
2023/03/22 00:28:44;;;;;;;19.33;17.23;;;9.50;81.20;;;;;;6285253;28;20218;-82
2023/03/22 00:31:47;;;;;;;16.97;15.20;;;9.50;81.10;;;;;;6298350;28;20225;-84
2023/03/22 00:34:51;;;;;;;15.40;13.90;;;9.50;81.20;;;;;;6293546;28;20264;-84
2023/03/22 00:37:56;;;;;;;17.50;15.70;;;9.50;81.20;;;;;;6293094;28;20248;-83
2023/03/22 00:41:06;;;;;;;21.07;16.47;;;9.50;81.30;;;;;;6280628;28;20253;-84
2023/03/22 00:44:09;;;;;;;19.87;17.00;;;9.50;81.30;;;;;;6310274;28;20268;-84
2023/03/22 00:47:12;;;;;;;19.07;17.07;;;9.40;81.40;;;;;;6290198;28;20218;-83
2023/03/22 00:50:16;;;;;;;18.43;16.13;;;9.50;81.50;;;;;;6281175;28;20439;-82
2023/03/22 00:53:21;;;;;;;23.00;18.63;;;9.40;81.40;;;;;;6276773;28;20218;-83
2023/03/22 00:56:27;;;;;;;20.67;18.23;;;9.50;81.60;;;;;;6288537;28;20222;-82
2023/03/22 00:59:31;;;;;;;20.40;17.30;;;9.60;81.50;;;;;;6281498;28;20242;-82
2023/03/22 01:02:34;;;;;;;23.10;18.77;;;9.60;81.30;;;;;;6286755;28;20445;-81
2023/03/22 01:05:37;;;;;;;20.23;17.87;;;9.50;81.50;;;;;;6301704;28;20359;-83
2023/03/22 01:08:42;;;;;;;21.53;19.30;;;9.50;81.50;;;;;;6284502;28;20263;-82
2023/03/22 01:11:45;;;;;;;19.37;17.03;;;9.50;81.50;;;;;;6285148;28;20226;-82
2023/03/22 01:14:48;;;;;;;19.63;17.63;;;9.50;81.40;;;;;;6292399;28;20285;-82
2023/03/22 01:17:52;;;;;;;21.40;19.20;;;9.50;81.50;;;;;;6282039;28;20287;-83
2023/03/22 01:20:55;;;;;;;19.63;17.60;;;9.50;81.50;;;;;;6302113;28;20407;-83
2023/03/22 01:24:00;;;;;;;20.27;18.07;;;9.40;81.70;;;;;;6272903;28;20237;-84
2023/03/22 01:27:03;;;;;;;20.00;17.97;;;9.40;81.60;;;;;;6254898;28;20266;-84
2023/03/22 01:30:08;;;;;;;21.30;18.93;;;9.40;81.70;;;;;;6267469;28;20237;-84
2023/03/22 01:33:11;;;;;;;21.07;18.90;;;9.40;81.60;;;;;;6293065;28;20233;-85
2023/03/22 01:36:14;;;;;;;24.10;19.77;;;9.40;81.60;;;;;;6256434;28;20229;-85
2023/03/22 01:39:19;;;;;;;21.50;19.40;;;9.40;81.50;;;;;;6268709;28;20236;-85
2023/03/22 01:42:22;;;;;;;24.37;19.87;;;9.30;81.80;;;;;;6256614;28;20253;-82
2023/03/22 01:45:38;;;;;;;25.00;21.07;;;9.30;81.90;;;;;;6298858;28;20291;-82
2023/03/22 01:48:44;;;;;;;28.27;21.77;;;9.30;82.00;;;;;;6304229;28;20273;-84
2023/03/22 01:51:51;;;;;;;25.73;22.90;;;9.30;81.90;;;;;;6287599;28;20237;-82
2023/03/22 01:54:58;;;;;;;23.03;20.23;;;9.20;82.10;;;;;;6297508;28;20233;-83
2023/03/22 01:58:02;;;;;;;21.47;19.17;;;9.20;82.10;;;;;;6283864;28;20222;-83
2023/03/22 02:01:08;;;;;;;23.27;20.30;;;9.20;82.10;;;;;;6264091;28;20308;-84
2023/03/22 02:04:15;;;;;;;20.33;18.23;;;9.30;81.90;;;;;;6270755;28;20369;-85
2023/03/22 02:07:24;;;;;;;23.33;19.20;;;9.30;81.80;;;;;;6260457;28;20290;-84
2023/03/22 02:10:29;;;;;;;21.37;19.17;;;9.30;81.70;;;;;;6278142;28;20584;-86
2023/03/22 02:13:46;;;;;;;19.90;17.90;;;9.20;81.70;;;;;;6261981;28;20230;-85
2023/03/22 02:17:02;;;;;;;23.80;19.90;;;9.20;81.70;;;;;;6268235;28;20244;-84
2023/03/22 02:20:40;;;;;;;21.43;19.13;;;9.20;81.60;;;;;;6271925;28;20234;-85
2023/03/22 02:24:34;;;;;;;19.33;17.53;;;9.20;81.50;;;;;;6255452;28;20407;-85
2023/03/22 02:28:13;;;;;;;21.83;19.40;;;9.20;81.40;;;;;;6251133;28;20436;-83
2023/03/22 02:31:53;;;;;;;21.40;19.17;;;9.20;81.40;;;;;;6258917;28;20242;-84
2023/03/22 02:35:21;;;;;;;20.33;18.33;;;9.10;81.50;;;;;;6257829;28;20800;-83
2023/03/22 02:39:00;;;;;;;19.97;18.10;;;9.00;81.50;;;;;;6258101;28;20587;-84
2023/03/22 02:42:18;;;;;;;20.20;18.03;;;9.10;81.40;;;;;;6257791;28;20249;-83
2023/03/22 02:45:30;;;;;;;22.10;19.67;;;9.00;81.30;;;;;;6268858;28;20233;-83
2023/03/22 02:48:40;;;;;;;20.80;18.70;;;9.00;81.20;;;;;;6273394;28;20312;-83
2023/03/22 02:51:47;;;;;;;19.83;17.70;;;9.00;81.30;;;;;;6259425;28;20405;-84
2023/03/22 02:54:56;;;;;;;19.10;17.10;;;9.00;81.20;;;;;;6263416;28;20237;-83
2023/03/22 02:58:07;;;;;;;19.37;17.57;;;9.00;81.10;;;;;;6255982;28;20419;-82
2023/03/22 03:01:16;;;;;;;21.47;19.00;;;9.00;81.10;;;;;;6264023;28;20505;-83
2023/03/22 03:04:25;;;;;;;17.80;16.00;;;8.90;81.10;;;;;;6271244;28;20226;-85
2023/03/22 03:07:31;;;;;;;21.30;19.10;;;8.90;81.10;;;;;;6262903;28;20264;-84
2023/03/22 03:10:35;;;;;;;22.97;19.53;;;8.90;81.00;;;;;;6255521;28;20234;-83
2023/03/22 03:13:40;;;;;;;23.03;19.23;;;8.80;81.00;;;;;;6249234;28;20229;-85
2023/03/22 03:16:44;;;;;;;21.30;18.77;;;8.80;81.10;;;;;;6272109;28;20831;-82
2023/03/22 03:20:06;;;;;;;20.73;18.20;;;8.80;80.90;;;;;;6258851;28;20236;-85
2023/03/22 03:23:19;;;;;;;21.83;19.63;;;8.80;80.90;;;;;;6251434;28;20260;-83
2023/03/22 03:26:29;;;;;;;20.43;18.27;;;8.80;80.80;;;;;;6257049;28;20492;-85
2023/03/22 03:29:40;;;;;;;20.20;17.97;;;8.60;80.90;;;;;;6253047;28;20323;-84
2023/03/22 03:32:47;;;;;;;18.27;16.47;;;8.60;80.70;;;;;;6252251;28;20239;-84
2023/03/22 03:35:53;;;;;;;21.30;19.10;;;8.70;80.60;;;;;;6246210;28;20721;-83
2023/03/22 03:38:58;;;;;;;21.43;19.13;;;8.60;80.50;;;;;;6276570;28;20240;-83
2023/03/22 03:42:03;;;;;;;19.63;17.73;;;8.60;80.50;;;;;;6278070;28;20469;-82
2023/03/22 03:45:09;;;;;;;21.20;18.90;;;8.60;80.70;;;;;;6257320;28;20798;-84
2023/03/22 03:48:19;;;;;;;22.37;19.70;;;8.60;80.70;;;;;;6259327;28;20734;-83
2023/03/22 03:51:23;;;;;;;20.33;18.20;;;8.50;80.60;;;;;;6248094;28;20237;-83
2023/03/22 03:54:26;;;;;;;19.10;16.93;;;8.50;80.60;;;;;;6261760;28;20222;-83
2023/03/22 03:57:30;;;;;;;20.83;18.67;;;8.50;80.50;;;;;;6247469;28;20242;-85
2023/03/22 04:00:34;;;;;;;18.60;16.73;;;8.50;80.40;;;;;;6244480;28;20326;-84
2023/03/22 04:03:38;;;;;;;20.20;18.03;;;8.50;80.60;;;;;;6236525;28;20595;-84
2023/03/22 04:06:41;;;;;;;17.73;16.03;;;8.50;80.50;;;;;;6265498;28;20245;-83
2023/03/22 04:09:44;;;;;;;17.57;15.77;;;8.50;80.60;;;;;;6252718;28;20315;-83
2023/03/22 04:12:47;;;;;;;18.07;16.33;;;8.50;80.60;;;;;;6251506;28;20253;-82
2023/03/22 04:15:56;;;;;;;21.67;17.83;;;8.60;80.50;;;;;;6245403;28;20234;-83
2023/03/22 04:18:59;;;;;;;18.87;17.10;;;8.50;80.20;;;;;;6262599;28;20513;-83
2023/03/22 04:22:03;;;;;;;20.20;17.87;;;8.50;80.20;;;;;;6262232;28;20233;-84
2023/03/22 04:25:10;;;;;;;20.37;17.67;;;8.50;80.10;;;;;;6254417;28;20594;-84
2023/03/22 04:28:13;;;;;;;21.33;19.03;;;8.60;80.30;;;;;;6256807;28;20789;-83
2023/03/22 04:31:20;;;;;;;18.27;16.60;;;8.60;80.20;;;;;;6256027;28;20620;-82
2023/03/22 04:34:25;;;;;;;17.50;15.80;;;8.60;80.10;;;;;;6253749;28;20374;-82
2023/03/22 04:37:30;;;;;;;19.13;16.73;;;8.60;80.00;;;;;;6256242;28;20229;-82
2023/03/22 04:40:37;;;;;;;18.03;16.37;;;8.60;79.90;;;;;;6261666;28;20243;-82
2023/03/22 04:43:45;;;;;;;18.67;16.87;;;8.60;79.80;;;;;;6260462;28;20236;-82
2023/03/22 04:46:50;;;;;;;18.07;16.37;;;8.60;79.80;;;;;;6268107;28;20578;-83
2023/03/22 04:49:53;;;;;;;18.67;16.93;;;8.60;79.80;;;;;;6258312;28;20241;-82
2023/03/22 04:52:57;;;;;;;19.80;17.73;;;8.60;79.80;;;;;;6249436;28;20244;-82
2023/03/22 04:56:01;;;;;;;18.73;16.80;;;8.60;79.50;;;;;;6244906;28;20368;-82
2023/03/22 04:59:07;;;;;;;19.53;17.40;;;8.60;79.40;;;;;;6251146;28;20614;-80
2023/03/22 05:02:11;;;;;;;18.93;16.97;;;8.60;79.30;;;;;;6254183;28;20395;-82
2023/03/22 05:05:14;;;;;;;19.77;17.67;;;8.60;79.20;;;;;;6261845;28;20242;-83
2023/03/22 05:08:18;;;;;;;21.50;18.30;;;8.50;79.30;;;;;;6246335;28;20234;-82
2023/03/22 05:11:23;;;;;;;20.27;18.07;;;8.50;79.40;;;;;;6256314;28;20626;-79
2023/03/22 05:14:26;;;;;;;20.23;17.90;;;8.50;79.40;;;;;;6251832;28;20324;-83
2023/03/22 05:17:31;;;;;;;22.37;19.30;;;8.50;79.40;;;;;;6260940;28;20248;-83
2023/03/22 05:20:35;;;;;;;19.50;17.47;;;8.40;79.50;;;;;;6261311;28;20268;-82
2023/03/22 05:23:38;;;;;;;19.03;17.20;;;8.40;79.70;;;;;;6245153;28;20241;-80
2023/03/22 05:26:43;;;;;;;18.80;16.90;;;8.40;79.60;;;;;;6258602;28;20236;-82
2023/03/22 05:29:48;;;;;;;20.87;17.60;;;8.50;79.50;;;;;;6260766;28;20226;-80
2023/03/22 05:32:58;;;;;;;19.60;17.50;;;8.50;79.40;;;;;;6256111;28;20260;-83
2023/03/22 05:36:01;;;;;;;18.17;16.27;;;8.50;79.30;;;;;;6263172;28;20238;-82
2023/03/22 05:39:05;;;;;;;17.73;15.83;;;8.50;79.30;;;;;;6268585;28;20245;-80
2023/03/22 05:42:08;;;;;;;20.93;17.93;;;8.60;79.40;;;;;;6260375;28;20242;-82
2023/03/22 05:45:11;;;;;;;19.50;17.50;;;8.60;79.30;;;;;;6256894;28;20241;-82
2023/03/22 05:48:17;;;;;;;21.07;18.73;;;8.60;79.20;;;;;;6259920;28;20663;-83
2023/03/22 05:51:24;;;;;;;21.53;19.30;;;8.60;79.00;;;;;;6256653;28;20552;-81
2023/03/22 05:54:27;;;;;;;25.30;20.77;;;8.60;79.00;;;;;;6259505;28;20230;-83
2023/03/22 05:57:30;;;;;;;23.83;18.87;;;8.60;79.00;;;;;;6237546;28;20517;-82
2023/03/22 06:00:34;;;;;;;24.80;21.30;;;8.60;79.10;;;;;;6253040;28;20246;-85
2023/03/22 06:03:39;;;;;;;20.97;18.87;;;8.60;79.10;;;;;;6247770;28;20241;-80
2023/03/22 06:06:42;;;;;;;22.67;19.27;;;8.60;79.10;;;;;;6263280;28;20235;-82
2023/03/22 06:09:46;;;;;;;22.63;19.03;;;8.60;79.00;;;;;;6254370;28;20312;-81
2023/03/22 06:12:49;;;;;;;22.10;19.83;;;8.60;79.10;;;;;;6264338;28;20298;-80
2023/03/22 06:15:52;;;;;;;22.00;19.80;;;8.60;79.00;;;;;;6262173;28;20311;-82
2023/03/22 06:18:57;;;;;;;23.13;20.17;;;8.70;78.70;;;;;;6261633;28;20612;-80
2023/03/22 06:22:00;;;;;;;22.53;19.93;;;8.60;78.70;;;;;;6264818;28;20238;-82
2023/03/22 06:25:04;;;;;;;21.90;19.27;;;8.60;78.70;;;;;;6258755;28;20715;-81
2023/03/22 06:28:07;;;;;;;21.20;18.97;;;8.60;78.70;;;;;;6233197;28;20250;-79
2023/03/22 06:31:11;;;;;;;20.93;18.83;;;8.70;78.60;;;;;;6248481;28;20234;-79
2023/03/22 06:34:15;;;;;;;24.93;18.53;;;8.80;78.60;;;;;;6260039;28;20527;-82
2023/03/22 06:37:19;;;;;;;24.43;19.57;;;8.80;78.50;;;;;;6259712;28;20622;-82
2023/03/22 06:40:22;;;;;;;22.77;18.93;;;8.90;78.10;;;;;;6262268;28;20763;-83
2023/03/22 06:43:25;;;;;;;23.20;19.70;;;8.90;78.00;;;;;;6260541;28;20258;-81
2023/03/22 06:46:28;;;;;;;23.20;18.63;;;9.00;77.70;;;;;;6253098;28;20237;-81
2023/03/22 06:49:33;;;;;;;21.07;18.57;;;9.00;77.60;;;;;;6253323;28;20245;-81
2023/03/22 06:52:37;;;;;;;19.73;17.83;;;9.00;77.70;;;;;;6246379;28;20238;-83
2023/03/22 06:55:40;;;;;;;19.40;17.40;;;9.00;77.70;;;;;;6245006;28;20879;-81
2023/03/22 06:58:43;;;;;;;24.57;19.30;;;9.10;77.70;;;;;;6259212;28;20360;-83
2023/03/22 07:01:47;;;;;;;20.70;18.60;;;9.10;77.50;;;;;;6270027;28;20234;-82
2023/03/22 07:04:52;;;;;;;21.37;18.70;;;9.20;77.60;;;;;;6248022;28;20247;-85
2023/03/22 07:07:55;;;;;;;24.17;19.27;;;9.20;77.40;;;;;;6254733;28;20241;-83
2023/03/22 07:10:59;;;;;;;20.20;17.97;;;9.20;77.20;;;;;;6265544;28;20316;-83
2023/03/22 07:14:02;;;;;;;22.50;18.30;;;9.20;77.30;;;;;;6255676;28;20725;-84
2023/03/22 07:17:05;;;;;;;19.80;17.87;;;9.30;77.00;;;;;;6258219;28;20238;-82
2023/03/22 07:20:11;;;;;;;22.80;19.07;;;9.30;77.20;;;;;;6260600;28;20325;-81
2023/03/22 07:23:15;;;;;;;20.83;18.63;;;9.40;77.00;;;;;;6267373;28;20352;-80
2023/03/22 07:26:18;;;;;;;19.70;17.60;;;9.50;76.80;;;;;;6254793;28;20230;-84
2023/03/22 07:29:21;;;;;;;19.83;17.80;;;9.70;76.50;;;;;;6261411;28;20233;-81
2023/03/22 07:32:25;;;;;;;19.83;17.17;;;9.70;75.90;;;;;;6264392;28;20280;-80
2023/03/22 07:35:30;;;;;;;21.47;18.23;;;9.80;75.70;;;;;;6239178;28;20234;-79
2023/03/22 07:38:33;;;;;;;19.57;17.57;;;10.00;75.60;;;;;;6258914;28;20253;-85
2023/03/22 07:41:36;;;;;;;19.20;16.67;;;10.10;74.70;;;;;;6262355;28;20260;-82
2023/03/22 07:44:39;;;;;;;18.60;16.73;;;10.10;74.90;;;;;;6231104;28;20333;-83
2023/03/22 07:47:43;;;;;;;17.07;15.33;;;10.10;75.00;;;;;;6258699;28;20316;-83
2023/03/22 07:50:47;;;;;;;19.17;17.00;;;10.20;74.90;;;;;;6252064;28;20338;-84
2023/03/22 07:53:51;;;;;;;19.63;16.10;;;10.40;74.50;;;;;;6247049;28;20227;-85
2023/03/22 07:56:54;;;;;;;19.10;17.10;;;10.40;74.00;;;;;;6260662;28;20241;-85
2023/03/22 07:59:57;;;;;;;18.70;16.83;;;10.40;74.20;;;;;;6252020;28;20581;-84
2023/03/22 08:03:01;;;;;;;18.30;16.03;;;10.50;74.20;;;;;;6250026;28;20260;-84
2023/03/22 08:06:07;;;;;;;17.83;15.93;;;10.50;73.70;;;;;;6250184;28;20678;-82
2023/03/22 08:09:11;;;;;;;18.30;16.27;;;10.70;73.00;;;;;;6242376;28;20231;-83
2023/03/22 08:12:14;;;;;;;17.33;15.70;;;10.80;73.40;;;;;;6260293;28;20238;-83
2023/03/22 08:15:17;;;;;;;16.97;15.07;;;11.00;73.30;;;;;;6259527;28;20829;-81
2023/03/22 08:18:24;;;;;;;17.13;15.47;;;11.10;72.30;;;;;;6250175;28;20344;-80
2023/03/22 08:21:29;;;;;;;15.30;13.97;;;11.10;72.20;;;;;;6255385;28;20229;-80
2023/03/22 08:24:32;;;;;;;16.63;14.43;;;11.40;71.20;;;;;;6255026;28;20313;-82
2023/03/22 08:27:35;;;;;;;15.30;13.73;;;11.50;71.50;;;;;;6264593;28;20363;-82
2023/03/22 08:30:38;;;;;;;14.93;13.57;;;11.40;71.20;;;;;;6263358;28;20237;-84
2023/03/22 08:33:42;;;;;;;15.53;14.00;;;11.40;71.60;;;;;;6265186;28;20226;-82
2023/03/22 08:36:47;;;;;;;14.33;12.97;;;11.50;71.40;;;;;;6250935;28;20573;-84
2023/03/22 08:39:50;;;;;;;15.27;12.57;;;11.60;70.50;;;;;;6258914;28;20540;-82
2023/03/22 08:42:54;;;;;;;14.70;13.33;;;11.70;70.20;;;;;;6250839;28;20235;-80
2023/03/22 08:45:57;;;;;;;14.73;13.43;;;11.90;69.80;;;;;;6263628;28;20237;-82
2023/03/22 08:49:01;;;;;;;14.33;13.03;;;11.90;70.20;;;;;;6262425;28;20237;-81
2023/03/22 08:52:07;;;;;;;13.20;11.93;;;12.00;69.50;;;;;;6253593;28;20665;-80
2023/03/22 08:55:11;;;;;;;14.70;12.33;;;12.00;69.40;;;;;;6252071;28;20724;-81
2023/03/22 08:58:18;;;;;;;13.57;12.23;;;11.90;69.90;;;;;;6254129;28;20875;-83
2023/03/22 09:01:21;;;;;;;14.17;12.77;;;12.10;70.00;;;;;;6256429;28;20233;-82
2023/03/22 09:04:25;;;;;;;13.63;12.33;;;12.20;69.20;;;;;;6263817;28;20232;-81
2023/03/22 09:07:29;;;;;;;13.17;12.07;;;12.50;68.30;;;;;;6254303;28;20834;-80
2023/03/22 09:10:32;;;;;;;14.00;12.67;;;12.50;68.00;;;;;;6246378;28;20234;-82
2023/03/22 09:13:36;;;;;;;13.03;12.00;;;12.70;67.60;;;;;;6255712;28;20240;-81
2023/03/22 09:16:39;;;;;;;13.57;12.17;;;12.80;67.60;;;;;;6252232;28;20739;-83
2023/03/22 09:19:42;;;;;;;14.90;12.20;;;13.00;67.90;;;;;;6250613;28;20740;-82
2023/03/22 09:22:47;;;;;;;14.87;12.37;;;12.90;67.50;;;;;;6253299;28;20233;-82
2023/03/22 09:25:50;;;;;;;13.53;12.33;;;12.70;67.60;;;;;;6252293;28;20729;-82
2023/03/22 09:28:53;;;;;;;13.70;12.10;;;12.80;68.30;;;;;;6247881;28;20242;-81
2023/03/22 09:31:56;;;;;;;13.67;12.30;;;13.00;67.70;;;;;;6259916;28;20238;-84
2023/03/22 09:35:01;;;;;;;12.10;11.10;;;13.10;68.00;;;;;;6251216;28;20238;-82
2023/03/22 09:38:06;;;;;;;12.20;11.10;;;13.30;66.90;;;;;;6260592;28;20293;-82
2023/03/22 09:41:14;;;;;;;12.00;11.10;;;13.50;65.70;;;;;;6258614;28;20338;-82
2023/03/22 09:44:24;;;;;;;13.00;11.63;;;13.90;65.60;;;;;;6257456;28;20321;-83
2023/03/22 09:47:34;;;;;;;12.77;11.57;;;14.00;65.00;;;;;;6254351;28;20233;-83
2023/03/22 09:50:50;;;;;;;12.93;11.63;;;14.10;65.10;;;;;;6273192;28;20818;-83
2023/03/22 09:53:55;;;;;;;11.87;10.73;;;14.20;64.10;;;;;;6272658;28;20271;-82
2023/03/22 09:57:02;;;;;;;10.83;9.87;;;14.20;64.50;;;;;;6253021;28;20244;-82
2023/03/22 10:00:15;;;;;;;11.90;10.63;;;14.30;64.10;;;;;;6263568;28;20239;-81
2023/03/22 10:03:30;;;;;;;11.43;10.63;;;14.60;62.90;;;;;;6265358;28;20682;-82
2023/03/22 10:06:33;;;;;;;10.43;9.43;;;14.50;63.00;;;;;;6257994;28;20321;-83
2023/03/22 10:09:45;;;;;;;11.70;10.33;;;14.60;63.90;;;;;;6284692;28;20631;-82
2023/03/22 10:12:56;;;;;;;11.97;10.70;;;14.70;63.20;;;;;;6256134;28;20234;-85
2023/03/22 10:16:03;;;;;;;11.60;10.60;;;14.50;62.40;;;;;;6269260;28;20244;-82
2023/03/22 10:19:17;;;;;;;10.90;9.77;;;14.60;62.00;;;;;;6257589;28;20254;-83
2023/03/22 10:22:24;;;;;;;11.97;10.77;;;14.60;62.20;;;;;;6267551;28;20294;-84
2023/03/22 10:25:35;;;;;;;11.40;10.50;;;14.80;61.90;;;;;;6270894;28;20237;-82
2023/03/22 10:28:40;;;;;;;10.53;9.60;;;15.00;62.20;;;;;;6268660;28;20381;-82
2023/03/22 10:31:44;;;;;;;10.20;9.40;;;15.10;61.70;;;;;;6280121;28;20282;-81
2023/03/22 10:34:48;;;;;;;10.83;9.93;;;15.30;61.60;;;;;;6285942;28;20226;-83
2023/03/22 10:37:52;;;;;;;11.93;10.63;;;15.30;61.30;;;;;;6291112;28;20234;-82
2023/03/22 10:40:59;;;;;;;10.80;9.70;;;15.40;61.70;;;;;;6287916;28;20214;-81
2023/03/22 10:44:05;;;;;;;10.77;9.70;;;15.40;60.70;;;;;;6293307;28;20310;-82
2023/03/22 10:47:11;;;;;;;11.00;9.90;;;15.30;60.90;;;;;;6289333;28;20492;-81
2023/03/22 10:50:20;;;;;;;9.87;8.97;;;15.50;61.00;;;;;;6290638;28;20232;-83
2023/03/22 10:53:30;;;;;;;9.63;8.90;;;15.40;60.70;;;;;;6310891;28;20287;-82
2023/03/22 10:56:35;;;;;;;9.77;8.60;;;15.40;60.60;;;;;;6270416;28;20242;-84
2023/03/22 10:59:47;;;;;;;9.00;8.33;;;15.60;60.30;;;;;;6272632;28;20238;-84
2023/03/22 11:02:53;;;;;;;8.67;7.93;;;15.80;59.20;;;;;;6281824;28;20761;-82
2023/03/22 11:06:02;;;;;;;9.97;9.20;;;15.80;59.30;;;;;;6252592;28;20509;-84
2023/03/22 11:09:12;;;;;;;9.40;8.60;;;15.60;59.10;;;;;;6258590;28;20231;-84
2023/03/22 11:12:17;;;;;;;9.00;8.20;;;15.40;59.40;;;;;;6264813;28;20238;-82
2023/03/22 11:15:29;;;;;;;8.10;7.40;;;15.30;59.60;;;;;;6264247;28;20265;-81
2023/03/22 11:18:34;;;;;;;9.77;7.80;;;15.40;59.20;;;;;;6260625;28;20230;-82
2023/03/22 11:21:37;;;;;;;8.43;7.80;;;15.60;58.90;;;;;;6254188;28;20736;-83
2023/03/22 11:24:41;;;;;;;7.73;7.10;;;15.40;59.00;;;;;;6265333;28;20621;-83
2023/03/22 11:27:53;;;;;;;8.13;7.43;;;15.60;59.20;;;;;;6267258;28;20472;-83
2023/03/22 11:31:14;;;;;;;7.43;6.67;;;15.70;58.30;;;;;;6274740;28;20250;-84
2023/03/22 11:34:20;;;;;;;7.87;7.27;;;15.80;57.60;;;;;;6294969;28;20214;-85
2023/03/22 11:37:23;;;;;;;7.27;6.77;;;15.60;57.80;;;;;;6299408;28;20221;-83
2023/03/22 11:40:29;;;;;;;6.10;5.80;;;15.60;57.50;;;;;;6292719;28;20242;-83
2023/03/22 11:43:37;;;;;;;7.17;6.50;;;15.50;57.90;;;;;;6294663;28;20266;-83
2023/03/22 11:46:49;;;;;;;7.00;6.43;;;15.60;57.60;;;;;;6285075;28;20242;-82
2023/03/22 11:49:55;;;;;;;7.73;6.00;;;15.40;58.20;;;;;;6291438;28;20278;-80
2023/03/22 11:53:03;;;;;;;6.07;5.70;;;15.50;57.10;;;;;;6292140;28;20644;-85
2023/03/22 11:56:09;;;;;;;5.57;5.13;;;15.60;57.20;;;;;;6279749;28;20241;-85
2023/03/22 11:59:17;;;;;;;6.53;5.97;;;15.80;56.80;;;;;;6274170;28;20304;-84
2023/03/22 12:02:26;;;;;;;6.90;6.43;;;15.90;56.60;;;;;;6279757;28;20252;-84
2023/03/22 12:05:31;;;;;;;6.43;6.03;;;15.80;56.70;;;;;;6260115;28;20253;-80
2023/03/22 12:08:42;;;;;;;6.77;6.30;;;15.80;57.20;;;;;;6256147;28;20662;-79
2023/03/22 12:11:50;;;;;;;7.13;6.50;;;16.00;57.10;;;;;;6264833;28;20230;-78
2023/03/22 12:14:59;;;;;;;6.67;6.13;;;16.10;56.50;;;;;;6264480;28;20230;-80
2023/03/22 12:18:07;;;;;;;6.63;6.17;;;16.40;56.00;;;;;;6286055;28;20233;-78
2023/03/22 12:21:11;;;;;;;7.17;5.73;;;16.20;55.80;;;;;;6260192;28;20234;-79
2023/03/22 12:24:26;;;;;;;6.73;6.40;;;16.00;55.40;;;;;;6262604;28;20230;-83
2023/03/22 12:27:33;;;;;;;6.13;5.47;;;16.10;55.40;;;;;;6264930;28;20694;-80
2023/03/22 12:30:43;;;;;;;6.80;6.20;;;16.40;54.80;;;;;;6261834;28;20238;-79
2023/03/22 12:33:49;;;;;;;6.53;5.90;;;16.40;55.70;;;;;;6251863;28;20234;-77
2023/03/22 12:36:55;;;;;;;6.57;6.17;;;16.40;55.50;;;;;;6258640;28;20688;-84
2023/03/22 12:40:04;;;;;;;6.60;6.20;;;16.60;54.70;;;;;;6263037;28;20301;-85
2023/03/22 12:43:15;;;;;;;7.13;6.40;;;16.40;55.80;;;;;;6257051;28;20234;-84
2023/03/22 12:46:24;;;;;;;6.60;6.10;;;16.40;55.80;;;;;;6259596;28;20245;-83
2023/03/22 12:49:34;;;;;;;6.20;5.70;;;16.60;55.60;;;;;;6254592;28;20545;-83
2023/03/22 12:52:42;;;;;;;7.17;6.60;;;16.70;55.30;;;;;;6265915;28;20233;-83
2023/03/22 12:55:49;;;;;;;7.07;6.53;;;16.80;55.20;;;;;;6251388;28;20241;-84
2023/03/22 12:58:56;;;;;;;6.43;5.93;;;16.70;55.70;;;;;;6256917;28;20324;-81
2023/03/22 13:02:06;;;;;;;5.93;5.40;;;17.00;55.50;;;;;;6260135;28;20256;-83
2023/03/22 13:05:11;;;;;;;5.77;5.20;;;17.20;55.50;;;;;;6260399;28;20256;-83
2023/03/22 13:08:20;;;;;;;4.37;3.97;;;17.10;54.50;;;;;;6269694;28;20226;-83
2023/03/22 13:11:24;;;;;;;5.30;4.43;;;17.00;54.60;;;;;;6258466;28;20238;-82
2023/03/22 13:14:56;;;;;;;8.90;6.77;;;17.00;53.70;;;;;;6259064;28;20241;-84
2023/03/22 13:18:02;;;;;;;4.20;4.00;;;17.00;54.10;;;;;;6252272;28;20250;-84
2023/03/22 13:21:14;;;;;;;4.43;4.13;;;17.00;53.30;;;;;;6259575;28;20240;-82
2023/03/22 13:24:25;;;;;;;4.20;3.90;;;17.10;53.00;;;;;;6253706;28;20291;-83
2023/03/22 13:27:40;;;;;;;4.57;4.00;;;17.00;53.60;;;;;;6253921;28;20501;-84
2023/03/22 13:30:59;;;;;;;4.07;3.77;;;17.00;53.30;;;;;;6261043;28;20717;-82
2023/03/22 13:34:04;;;;;;;5.33;3.67;;;16.80;53.60;;;;;;6239832;28;20237;-81
2023/03/22 13:37:21;;;;;;;4.50;4.20;;;16.80;53.20;;;;;;6274976;28;20233;-82
2023/03/22 13:40:34;;;;;;;5.80;3.37;;;16.90;53.00;;;;;;6283630;28;20473;-82
2023/03/22 13:43:46;;;;;;;3.87;3.67;;;17.20;52.80;;;;;;6278687;28;20237;-84
2023/03/22 13:46:53;;;;;;;4.27;3.53;;;17.20;52.00;;;;;;6261076;28;20234;-82
2023/03/22 13:50:03;;;;;;;3.73;3.43;;;17.20;52.30;;;;;;6251972;28;20326;-84
2023/03/22 13:53:20;;;;;;;4.33;3.40;;;17.20;52.20;;;;;;6254233;28;20230;-82
2023/03/22 13:56:46;;;;;;;6.50;5.80;;;17.00;52.50;;;;;;6236425;28;20241;-82
2023/03/22 14:00:05;;;;;;;3.40;3.30;;;16.90;52.70;;;;;;6224331;28;20243;-83
2023/03/22 14:03:24;;;;;;;3.80;3.60;;;16.80;53.10;;;;;;6244032;28;20276;-82
2023/03/22 14:06:32;;;;;;;4.13;3.83;;;16.70;53.00;;;;;;6269748;28;20616;-83
2023/03/22 14:09:43;;;;;;;3.90;3.60;;;16.60;54.00;;;;;;6255622;28;20231;-83
2023/03/22 14:12:51;;;;;;;3.73;3.57;;;16.70;52.90;;;;;;6257745;28;20226;-82
2023/03/22 14:15:58;;;;;;;3.97;3.67;;;16.60;53.30;;;;;;6256859;28;20234;-83
2023/03/22 14:19:05;;;;;;;6.20;4.50;;;16.60;54.10;;;;;;6261113;28;20231;-82
2023/03/22 14:22:14;;;;;;;3.80;3.60;;;16.80;53.50;;;;;;6245338;28;20243;-83
2023/03/22 14:25:21;;;;;;;3.90;3.70;;;17.00;52.90;;;;;;6283100;28;20472;-84
2023/03/22 14:28:33;;;;;;;3.53;3.43;;;17.10;52.60;;;;;;6282222;28;20324;-83
2023/03/22 14:31:35;;;;;;;3.47;3.27;;;17.20;52.10;;;;;;6279309;28;20246;-81
2023/03/22 14:34:41;;;;;;;3.30;3.10;;;17.00;52.10;;;;;;6279607;28;20242;-81
2023/03/22 14:37:45;;;;;;;4.07;3.20;;;17.20;51.60;;;;;;6263952;28;20408;-82
2023/03/22 14:40:48;;;;;;;4.30;4.00;;;17.40;51.20;;;;;;6260240;28;20257;-82
2023/03/22 14:43:57;;;;;;;5.13;4.03;;;17.20;51.20;;;;;;6276233;28;20496;-81
2023/03/22 14:47:09;;;;;;;3.77;3.57;;;17.20;51.20;;;;;;6269003;28;20380;-82
2023/03/22 14:50:15;;;;;;;4.17;3.70;;;17.00;51.80;;;;;;6249650;28;20325;-81
2023/03/22 14:53:26;;;;;;;3.40;3.20;;;16.90;52.00;;;;;;6263359;28;20238;-81
2023/03/22 14:56:32;;;;;;;4.57;4.17;;;16.80;52.20;;;;;;6248903;28;20239;-81
2023/03/22 14:59:34;;;;;;;3.67;3.57;;;16.70;52.60;;;;;;6254249;28;20222;-82
2023/03/22 15:02:39;;;;;;;3.80;3.60;;;16.70;52.70;;;;;;6238567;28;20613;-81
2023/03/22 15:05:43;;;;;;;5.50;3.73;;;16.70;53.10;;;;;;6241257;28;20527;-81
2023/03/22 15:08:47;;;;;;;3.67;3.37;;;16.60;53.40;;;;;;6255025;28;20519;-82
2023/03/22 15:11:56;;;;;;;3.57;3.37;;;16.40;53.60;;;;;;6241965;28;20234;-81
2023/03/22 15:14:58;;;;;;;4.77;3.40;;;16.40;53.50;;;;;;6235196;28;20323;-82
2023/03/22 15:18:01;;;;;;;3.67;3.40;;;16.40;53.50;;;;;;6246098;28;20238;-83
2023/03/22 15:21:06;;;;;;;3.47;3.37;;;16.40;53.30;;;;;;6243990;28;20239;-82
2023/03/22 15:24:23;;;;;;;3.10;3.00;;;16.40;53.50;;;;;;6250360;28;20736;-83
2023/03/22 15:27:29;;;;;;;7.53;3.47;;;16.40;53.80;;;;;;6254485;28;20594;-82
2023/03/22 15:30:31;;;;;;;3.73;3.53;;;16.20;54.20;;;;;;6253330;28;20376;-84
2023/03/22 15:33:36;;;;;;;3.30;3.20;;;16.30;54.10;;;;;;6259628;28;20733;-85
2023/03/22 15:36:40;;;;;;;3.10;2.80;;;16.20;54.00;;;;;;6257090;28;20244;-81
2023/03/22 15:39:44;;;;;;;3.77;3.40;;;16.20;54.00;;;;;;6264511;28;20240;-82
2023/03/22 15:42:46;;;;;;;3.83;3.27;;;16.20;54.20;;;;;;6248430;28;20634;-82
2023/03/22 15:46:15;;;;;;;3.10;2.90;;;16.20;54.00;;;;;;6240327;28;20255;-82
2023/03/22 15:49:20;;;;;;;3.13;3.00;;;16.40;53.70;;;;;;6246151;28;20226;-81
2023/03/22 15:52:25;;;;;;;3.43;3.17;;;16.40;53.60;;;;;;6252845;28;20461;-84
2023/03/22 15:55:34;;;;;;;3.47;3.20;;;16.40;52.70;;;;;;6245949;28;20312;-81
2023/03/22 15:58:36;;;;;;;3.47;3.27;;;16.40;52.10;;;;;;6266818;28;20253;-82
2023/03/22 16:01:43;;;;;;;3.33;3.23;;;16.40;52.30;;;;;;6289670;28;20228;-84